createdAt,value
2019-02-07T00:00:38.682Z,98408.20
2019-02-07T00:03:10.861Z,98409.94
2019-02-07T00:05:44.836Z,98407.81
2019-02-07T00:08:16.895Z,98403.03
2019-02-07T00:10:49.220Z,98403.38
2019-02-07T00:13:21.333Z,98407.33
2019-02-07T00:15:53.559Z,98404.28
2019-02-07T00:18:25.661Z,98393.86
2019-02-07T00:20:57.784Z,98387.03
2019-02-07T00:23:29.887Z,98380.95
2019-02-07T00:26:01.932Z,98374.16
2019-02-07T00:28:34.131Z,98372.42
2019-02-07T00:31:06.735Z,98363.87
2019-02-07T00:33:39.143Z,98355.36
2019-02-07T00:36:11.294Z,98349.24
2019-02-07T00:38:43.804Z,98344.15
2019-02-07T00:41:15.910Z,98338.33
2019-02-07T00:43:48.111Z,98329.63
2019-02-07T00:46:21.055Z,98330.00
2019-02-07T00:48:53.263Z,98323.24
2019-02-07T00:51:25.373Z,98314.58
2019-02-07T00:53:57.398Z,98308.30
2019-02-07T00:56:29.530Z,98312.64
2019-02-07T00:59:01.929Z,98306.56
2019-02-07T01:01:34.148Z,98303.30
2019-02-07T01:04:06.352Z,98298.47
2019-02-07T01:06:38.472Z,98293.23
2019-02-07T01:09:11.641Z,98284.30
2019-02-07T01:11:46.211Z,98278.35
2019-02-07T01:14:18.522Z,98273.23
2019-02-07T01:16:50.632Z,98270.20
2019-02-07T01:19:22.838Z,98269.28
2019-02-07T01:21:55.082Z,98269.16
2019-02-07T01:24:27.189Z,98270.95
2019-02-07T01:26:59.394Z,98265.31
2019-02-07T01:29:31.502Z,98263.83
2019-02-07T01:32:03.628Z,98256.12
2019-02-07T01:34:35.835Z,98254.32
2019-02-07T01:37:07.997Z,98253.86
2019-02-07T01:39:40.206Z,98250.45
2019-02-07T01:42:12.323Z,98240.54
2019-02-07T01:44:44.534Z,98227.30
2019-02-07T01:47:16.653Z,98216.29
2019-02-07T01:49:48.764Z,98213.30
2019-02-07T01:52:20.876Z,98206.06
2019-02-07T01:54:52.987Z,98202.79
2019-02-07T01:57:25.099Z,98205.73
2019-02-07T01:59:57.138Z,98196.10
2019-02-07T02:02:29.352Z,98198.04
2019-02-07T02:05:01.605Z,98192.66
2019-02-07T02:07:33.664Z,98192.06
2019-02-07T02:10:08.076Z,98191.12
2019-02-07T02:12:41.451Z,98190.24
2019-02-07T02:15:24.031Z,98187.07
2019-02-07T02:17:49.806Z,98182.00
2019-02-07T02:20:23.679Z,98187.33
2019-02-07T02:22:56.606Z,98181.06
2019-02-07T02:25:29.065Z,98183.02
2019-02-07T02:28:01.171Z,98181.73
2019-02-07T02:30:35.798Z,98183.06
2019-02-07T02:33:08.199Z,98169.55
2019-02-07T02:35:40.385Z,98166.91
2019-02-07T02:38:12.559Z,98166.09
2019-02-07T02:40:44.651Z,98167.47
2019-02-07T02:43:16.762Z,98159.00
2019-02-07T02:45:48.963Z,98161.38
2019-02-07T02:48:21.076Z,98155.27
2019-02-07T02:50:53.179Z,98149.61
2019-02-07T02:53:25.279Z,98143.86
2019-02-07T02:55:59.719Z,98135.53
2019-02-07T02:58:31.826Z,98131.30
2019-02-07T03:01:23.833Z,98129.25
2019-02-07T03:04:13.381Z,98137.17
2019-02-07T03:07:13.316Z,98127.22
2019-02-07T03:10:13.034Z,98133.04
2019-02-07T03:13:04.948Z,98131.38
2019-02-07T03:16:05.062Z,98125.42
2019-02-07T03:19:04.687Z,98115.84
2019-02-07T03:22:01.645Z,98108.66
2019-02-07T03:24:58.630Z,98108.95
2019-02-07T03:27:55.624Z,98089.99
2019-02-07T03:30:52.263Z,98090.31
2019-02-07T03:33:48.960Z,98087.01
2019-02-07T03:36:45.591Z,98083.58
2019-02-07T03:39:39.667Z,98082.84
2019-02-07T03:42:30.721Z,98080.14
2019-02-07T03:45:22.646Z,98087.13
2019-02-07T03:48:08.338Z,98083.20
2019-02-07T03:51:14.084Z,98084.23
2019-02-07T03:53:57.614Z,98088.41
2019-02-07T03:56:45.462Z,98093.20
2019-02-07T03:59:39.087Z,98083.70
2019-02-07T04:02:28.548Z,98072.39
2019-02-07T04:05:19.587Z,98071.86
2019-02-07T04:08:13.086Z,98070.03
2019-02-07T04:11:16.152Z,98068.84
2019-02-07T04:14:27.396Z,98064.25
2019-02-07T04:17:16.843Z,98070.88
2019-02-07T04:20:06.159Z,98077.92
2019-02-07T04:23:03.028Z,98081.11
2019-02-07T04:25:57.107Z,98066.70
2019-02-07T04:28:47.166Z,98074.05
2019-02-07T04:31:38.433Z,98069.50
2019-02-07T04:34:28.800Z,98069.16
2019-02-07T04:37:22.585Z,98080.80
2019-02-07T04:40:12.728Z,98080.03
2019-02-07T04:43:09.910Z,98081.87
2019-02-07T04:46:00.727Z,98071.52
2019-02-07T04:49:06.713Z,98076.13
2019-02-07T04:51:56.207Z,98077.42
2019-02-07T04:54:48.855Z,98079.53
2019-02-07T04:57:27.915Z,98076.27
2019-02-07T05:00:19.086Z,98060.52
2019-02-07T05:03:22.129Z,98048.75
2019-02-07T05:06:11.722Z,98045.88
2019-02-07T05:09:05.338Z,98038.95
2019-02-07T05:11:58.597Z,98031.92
2019-02-07T05:14:46.651Z,98032.24
2019-02-07T05:17:37.464Z,98021.68
2019-02-07T05:20:20.937Z,98013.23
2019-02-07T05:23:17.586Z,98009.52
2019-02-07T05:26:23.537Z,98027.23
2019-02-07T05:29:11.506Z,98023.78
2019-02-07T05:32:00.989Z,98015.88
2019-02-07T05:35:10.670Z,98021.16
2019-02-07T05:38:01.496Z,98018.83
2019-02-07T05:40:55.231Z,98020.14
2019-02-07T05:43:44.674Z,98014.09
2019-02-07T05:46:53.730Z,97997.46
2019-02-07T05:50:03.214Z,97969.00
2019-02-07T05:53:08.736Z,97966.06
2019-02-07T05:56:00.421Z,97975.89
2019-02-07T05:58:45.494Z,97990.00
2019-02-07T06:01:40.174Z,98005.91
2019-02-07T06:04:29.608Z,97988.40
2019-02-07T06:07:21.372Z,97985.58
2019-02-07T06:10:14.976Z,97965.59
2019-02-07T06:13:08.599Z,97973.73
2019-02-07T06:15:49.572Z,97984.64
2019-02-07T06:18:49.573Z,97980.64
2019-02-07T06:21:39.438Z,97974.92
2019-02-07T06:24:28.671Z,97984.91
2019-02-07T06:27:17.927Z,97981.86
2019-02-07T06:30:07.481Z,97991.16
2019-02-07T06:33:01.360Z,98001.75
2019-02-07T06:35:55.361Z,97996.66
2019-02-07T06:38:54.983Z,98001.73
2019-02-07T06:42:03.825Z,97998.65
2019-02-07T06:44:52.460Z,98002.17
2019-02-07T06:47:51.148Z,98005.59
2019-02-07T06:50:41.139Z,98008.73
2019-02-07T06:53:44.308Z,98010.00
2019-02-07T06:56:41.131Z,98018.22
2019-02-07T06:59:30.374Z,98020.90
2019-02-07T07:02:33.306Z,98015.14
2019-02-07T07:05:24.271Z,98021.19
2019-02-07T07:08:19.863Z,98016.63
2019-02-07T07:11:09.302Z,98025.35
2019-02-07T07:14:00.124Z,98016.90
2019-02-07T07:16:50.975Z,98021.87
2019-02-07T07:19:59.800Z,98022.67
2019-02-07T07:22:50.166Z,98030.50
2019-02-07T07:25:31.414Z,98027.98
2019-02-07T07:28:22.165Z,98021.27
2019-02-07T07:31:24.930Z,98003.97
2019-02-07T07:34:24.824Z,98005.13
2019-02-07T07:37:27.875Z,98003.91
2019-02-07T07:40:21.903Z,97991.09
2019-02-07T07:43:12.962Z,97984.96
2019-02-07T07:46:05.043Z,97995.23
2019-02-07T07:49:01.684Z,97989.20
2019-02-07T07:51:49.645Z,97989.67
2019-02-07T07:54:39.114Z,97985.82
2019-02-07T07:57:28.340Z,97980.55
2019-02-07T08:00:25.192Z,97980.36
2019-02-07T08:03:08.171Z,97971.48
2019-02-07T08:05:58.448Z,97961.62
2019-02-07T08:08:47.996Z,97964.95
2019-02-07T08:11:44.738Z,97980.70
2019-02-07T08:14:41.648Z,97993.22
2019-02-07T08:17:47.031Z,97980.43
2019-02-07T08:20:40.663Z,97986.68
2019-02-07T08:23:31.526Z,97985.16
2019-02-07T08:26:20.963Z,97982.40
2019-02-07T08:29:21.050Z,97974.80
2019-02-07T08:32:00.670Z,97976.00
2019-02-07T08:34:57.466Z,97972.16
2019-02-07T08:37:51.173Z,97965.76
2019-02-07T08:40:41.164Z,97969.97
2019-02-07T08:43:35.555Z,97964.38
2019-02-07T08:46:29.647Z,97969.44
2019-02-07T08:49:10.304Z,97961.52
2019-02-07T08:52:02.830Z,97957.37
2019-02-07T08:54:52.034Z,97961.23
2019-02-07T08:57:45.862Z,97957.90
2019-02-07T09:00:36.485Z,97945.91
2019-02-07T09:03:27.519Z,97942.80
2019-02-07T09:06:16.708Z,97941.29
2019-02-07T09:09:07.503Z,97943.13
2019-02-07T09:12:07.847Z,97941.91
2019-02-07T09:14:50.661Z,97942.13
2019-02-07T09:17:44.299Z,97932.95
2019-02-07T09:20:35.241Z,97918.81
2019-02-07T09:23:26.113Z,97915.07
2019-02-07T09:26:31.835Z,97912.42
2019-02-07T09:29:25.706Z,97921.88
2019-02-07T09:32:25.886Z,97933.32
2019-02-07T09:35:05.787Z,97932.98
2019-02-07T09:37:51.045Z,97927.13
2019-02-07T09:40:47.886Z,97925.45
2019-02-07T09:43:29.463Z,97913.30
2019-02-07T09:46:30.406Z,97913.42
2019-02-07T09:49:24.388Z,97914.64
2019-02-07T09:52:18.046Z,97919.00
2019-02-07T09:55:17.940Z,97920.66
2019-02-07T09:58:14.728Z,97926.79
2019-02-07T10:01:03.081Z,97922.28
2019-02-07T10:04:12.135Z,97915.22
2019-02-07T10:06:55.946Z,97909.22
2019-02-07T10:09:45.026Z,97905.02
2019-02-07T10:12:41.891Z,97910.60
2019-02-07T10:15:33.053Z,97920.83
2019-02-07T10:18:32.720Z,97909.71
2019-02-07T10:21:20.654Z,97905.61
2019-02-07T10:24:20.356Z,97909.86
2019-02-07T10:27:14.285Z,97897.15
2019-02-07T10:30:03.748Z,97892.27
2019-02-07T10:33:06.842Z,97889.11
2019-02-07T10:36:06.927Z,97893.39
2019-02-07T10:39:15.875Z,97869.65
2019-02-07T10:42:13.150Z,97885.16
2019-02-07T10:45:08.924Z,97879.84
2019-02-07T10:48:02.817Z,97878.99
2019-02-07T10:51:05.712Z,97860.34
2019-02-07T10:53:56.535Z,97850.08
2019-02-07T10:56:46.319Z,97845.17
2019-02-07T10:59:35.540Z,97843.81
2019-02-07T11:02:38.729Z,97845.09
2019-02-07T11:05:31.588Z,97839.80
2019-02-07T11:08:20.813Z,97836.44
2019-02-07T11:11:05.934Z,97833.26
2019-02-07T11:13:59.618Z,97828.37
2019-02-07T11:16:53.546Z,97830.27
2019-02-07T11:19:44.340Z,97820.78
2019-02-07T11:22:35.271Z,97814.05
2019-02-07T11:25:41.678Z,97817.75
2019-02-07T11:28:41.720Z,97808.66
2019-02-07T11:31:35.310Z,97806.56
2019-02-07T11:34:26.548Z,97792.28
2019-02-07T11:37:23.318Z,97790.34
2019-02-07T11:40:20.294Z,97791.45
2019-02-07T11:43:15.944Z,97794.23
2019-02-07T11:45:59.870Z,97792.37
2019-02-07T11:48:53.640Z,97794.16
2019-02-07T11:51:37.268Z,97796.48
2019-02-07T11:54:25.058Z,97801.91
2019-02-07T11:57:21.818Z,97789.13
2019-02-07T12:00:24.814Z,97797.63
2019-02-07T12:03:14.304Z,97792.94
2019-02-07T12:06:11.157Z,97796.08
2019-02-07T12:09:06.915Z,97790.88
2019-02-07T12:12:04.070Z,97789.08
2019-02-07T12:14:57.990Z,97782.14
2019-02-07T12:18:07.065Z,97781.36
2019-02-07T12:20:58.028Z,97770.17
2019-02-07T12:23:46.932Z,97762.17
2019-02-07T12:26:37.998Z,97760.39
2019-02-07T12:29:25.697Z,97755.59
2019-02-07T12:32:15.122Z,97753.06
2019-02-07T12:35:04.254Z,97746.05
2019-02-07T12:38:04.159Z,97750.31
2019-02-07T12:40:53.748Z,97749.52
2019-02-07T12:43:39.173Z,97746.87
2019-02-07T12:46:48.290Z,97749.62
2019-02-07T12:49:37.974Z,97734.34
2019-02-07T12:52:31.765Z,97755.30
2019-02-07T12:55:21.531Z,97748.73
2019-02-07T12:58:23.105Z,97740.90
2019-02-07T13:01:12.730Z,97749.80
2019-02-07T13:04:07.168Z,97732.59
2019-02-07T13:07:00.907Z,97734.84
2019-02-07T13:09:51.872Z,97740.16
2019-02-07T13:12:49.552Z,97741.16
2019-02-07T13:15:40.507Z,97744.81
2019-02-07T13:18:36.606Z,97744.98
2019-02-07T13:21:27.555Z,97743.55
2019-02-07T13:24:16.841Z,97743.50
2019-02-07T13:27:05.963Z,97737.86
2019-02-07T13:30:14.874Z,97733.61
2019-02-07T13:33:09.745Z,97734.48
2019-02-07T13:35:52.329Z,97737.06
2019-02-07T13:38:42.843Z,97742.47
2019-02-07T13:41:36.474Z,97742.20
2019-02-07T13:44:42.774Z,97736.58
2019-02-07T13:47:42.570Z,97729.06
2019-02-07T13:50:33.797Z,97736.06
2019-02-07T13:53:26.471Z,97731.69
2019-02-07T13:56:15.708Z,97735.19
2019-02-07T13:59:15.644Z,97734.20
2019-02-07T14:02:06.492Z,97744.84
2019-02-07T14:04:57.307Z,97755.38
2019-02-07T14:07:46.814Z,97751.78
2019-02-07T14:10:47.246Z,97745.02
2019-02-07T14:13:40.945Z,97751.14
2019-02-07T14:16:45.538Z,97752.08
2019-02-07T14:19:30.548Z,97754.58
2019-02-07T14:22:16.559Z,97752.82
2019-02-07T14:25:22.570Z,97756.08
2019-02-07T14:28:25.460Z,97753.22
2019-02-07T14:31:19.320Z,97748.15
2019-02-07T14:34:12.990Z,97752.81
2019-02-07T14:37:09.887Z,97752.82
2019-02-07T14:39:59.479Z,97750.13
2019-02-07T14:42:53.163Z,97752.48
2019-02-07T14:45:46.910Z,97746.88
2019-02-07T14:48:25.977Z,97744.95
2019-02-07T14:50:58.386Z,97747.64
2019-02-07T14:53:30.471Z,97745.23
2019-02-07T14:56:02.577Z,97747.00
2019-02-07T14:58:34.666Z,97746.19
2019-02-07T15:01:07.002Z,97744.13
2019-02-07T15:03:39.094Z,97746.75
2019-02-07T15:06:11.297Z,97745.17
2019-02-07T15:08:43.389Z,97744.55
2019-02-07T15:11:15.617Z,97744.50
2019-02-07T15:13:48.008Z,97739.28
2019-02-07T15:16:20.105Z,97737.68
2019-02-07T15:18:52.201Z,97740.55
2019-02-07T15:21:24.296Z,97723.39
2019-02-07T15:23:56.390Z,97734.22
2019-02-07T15:26:31.132Z,97737.55
2019-02-07T15:29:03.446Z,97726.02
2019-02-07T15:31:35.767Z,97732.68
2019-02-07T15:34:09.454Z,97735.95
2019-02-07T15:36:44.072Z,97725.77
2019-02-07T15:39:18.197Z,97731.41
2019-02-07T15:41:50.406Z,97730.28
2019-02-07T15:44:22.996Z,97731.38
2019-02-07T15:46:55.093Z,97735.45
2019-02-07T15:49:27.292Z,97734.23
2019-02-07T15:51:59.394Z,97732.94
2019-02-07T15:54:31.488Z,97741.62
2019-02-07T15:57:03.582Z,97746.73
2019-02-07T15:59:56.887Z,97739.17
2019-02-07T16:02:41.156Z,97739.69
2019-02-07T16:05:14.612Z,97742.95
2019-02-07T16:07:46.703Z,97749.87
2019-02-07T16:10:19.746Z,97754.98
2019-02-07T16:12:51.941Z,97752.10
2019-02-07T16:15:24.356Z,97757.67
2019-02-07T16:17:56.451Z,97763.45
2019-02-07T16:20:29.058Z,97767.13
2019-02-07T16:23:01.403Z,97773.77
2019-02-07T16:25:33.605Z,97774.77
2019-02-07T16:28:06.316Z,97774.67
2019-02-07T16:30:39.315Z,97768.90
2019-02-07T16:33:11.523Z,97763.28
2019-02-07T16:35:43.821Z,97776.73
2019-02-07T16:38:16.158Z,97772.20
2019-02-07T16:40:48.352Z,97775.89
2019-02-07T16:43:20.921Z,97770.69
2019-02-07T16:45:53.042Z,97770.59
2019-02-07T16:48:25.994Z,97769.96
2019-02-07T16:51:00.372Z,97773.39
2019-02-07T16:53:31.967Z,97772.58
2019-02-07T16:56:04.545Z,97782.23
2019-02-07T16:58:36.655Z,97782.08
2019-02-07T17:01:12.095Z,97784.16
2019-02-07T17:03:44.171Z,97784.37
2019-02-07T17:06:16.225Z,97775.27
2019-02-07T17:08:49.058Z,97768.87
2019-02-07T17:11:21.224Z,97765.73
2019-02-07T17:13:53.642Z,97770.25
2019-02-07T17:16:25.700Z,97779.98
2019-02-07T17:18:57.798Z,97779.61
2019-02-07T17:21:29.963Z,97785.82
2019-02-07T17:24:02.063Z,97782.20
2019-02-07T17:26:34.225Z,97787.95
2019-02-07T17:29:06.533Z,97792.17
2019-02-07T17:31:38.730Z,97784.80
2019-02-07T17:34:10.825Z,97788.71
2019-02-07T17:36:42.821Z,97790.35
2019-02-07T17:39:14.961Z,97791.71
2019-02-07T17:41:47.127Z,97791.08
2019-02-07T17:44:19.239Z,97795.35
2019-02-07T17:46:51.324Z,97792.11
2019-02-07T17:49:23.626Z,97798.53
2019-02-07T17:51:55.678Z,97793.38
2019-02-07T17:54:28.147Z,97794.94
2019-02-07T17:57:00.610Z,97807.33
2019-02-07T17:59:32.702Z,97803.80
2019-02-07T18:02:05.994Z,97802.90
2019-02-07T18:04:38.197Z,97808.24
2019-02-07T18:07:10.436Z,97805.70
2019-02-07T18:09:42.930Z,97805.43
2019-02-07T18:12:14.995Z,97809.88
2019-02-07T18:14:47.116Z,97813.45
2019-02-07T18:17:19.174Z,97813.89
2019-02-07T18:19:51.274Z,97809.47
2019-02-07T18:22:23.629Z,97816.27
2019-02-07T18:24:55.726Z,97818.72
2019-02-07T18:27:28.149Z,97812.95
2019-02-07T18:30:00.350Z,97813.19
2019-02-07T18:32:32.403Z,97819.71
2019-02-07T18:35:06.143Z,97829.05
2019-02-07T18:37:38.201Z,97826.02
2019-02-07T18:40:14.804Z,97830.48
2019-02-07T18:42:47.055Z,97832.02
2019-02-07T18:45:20.179Z,97830.05
2019-02-07T18:47:52.341Z,97835.00
2019-02-07T18:50:32.002Z,97844.55
2019-02-07T18:53:04.161Z,97844.13
2019-02-07T18:55:38.859Z,97856.41
2019-02-07T18:58:11.029Z,97849.02
2019-02-07T19:00:43.131Z,97851.27
2019-02-07T19:03:16.139Z,97857.38
2019-02-07T19:05:48.246Z,97857.20
2019-02-07T19:08:20.324Z,97874.83
2019-02-07T19:10:52.619Z,97878.08
2019-02-07T19:13:24.684Z,97876.81
2019-02-07T19:16:02.832Z,97878.33
2019-02-07T19:18:34.985Z,97892.77
2019-02-07T19:21:07.397Z,97885.49
2019-02-07T19:23:39.470Z,97891.91
2019-02-07T19:26:13.413Z,97887.05
2019-02-07T19:28:45.262Z,97888.66
2019-02-07T19:31:17.367Z,97890.67
2019-02-07T19:33:49.626Z,97902.02
2019-02-07T19:36:21.728Z,97912.02
2019-02-07T19:38:53.925Z,97912.52
2019-02-07T19:41:26.234Z,97906.44
2019-02-07T19:43:58.295Z,97905.33
2019-02-07T19:46:30.501Z,97905.95
2019-02-07T19:49:02.663Z,97908.33
2019-02-07T19:51:34.755Z,97907.48
2019-02-07T19:54:07.015Z,97914.71
2019-02-07T19:56:39.112Z,97913.97
2019-02-07T19:59:11.394Z,97912.81
2019-02-07T20:01:44.495Z,97907.83
2019-02-07T20:04:16.560Z,97907.03
2019-02-07T20:06:48.661Z,97909.48
2019-02-07T20:09:20.751Z,97910.67
2019-02-07T20:11:52.852Z,97928.66
2019-02-07T20:14:25.063Z,97926.91
2019-02-07T20:16:57.166Z,97935.16
2019-02-07T20:19:29.230Z,97931.16
2019-02-07T20:22:01.319Z,97933.45
2019-02-07T20:24:45.412Z,97945.99
2019-02-07T20:27:07.547Z,97943.73
2019-02-07T20:29:39.609Z,97953.55
2019-02-07T20:32:11.968Z,97948.52
2019-02-07T20:34:44.046Z,97945.69
2019-02-07T20:37:16.337Z,97950.70
2019-02-07T20:39:48.441Z,97959.87
2019-02-07T20:42:20.547Z,97961.05
2019-02-07T20:44:52.612Z,97957.81
2019-02-07T20:47:24.707Z,97961.52
2019-02-07T20:49:56.764Z,97965.38
2019-02-07T20:52:28.959Z,97961.94
2019-02-07T20:55:01.020Z,97970.67
2019-02-07T20:57:33.126Z,97961.78
2019-02-07T21:00:06.857Z,97962.51
2019-02-07T21:02:39.056Z,97963.63
2019-02-07T21:05:11.849Z,97973.30
2019-02-07T21:07:43.948Z,97972.38
2019-02-07T21:10:17.862Z,97972.28
2019-02-07T21:12:50.171Z,97968.45
2019-02-07T21:15:22.541Z,97968.53
2019-02-07T21:17:54.730Z,97970.75
2019-02-07T21:20:28.749Z,97978.58
2019-02-07T21:23:01.816Z,97983.73
2019-02-07T21:25:41.595Z,97980.54
2019-02-07T21:28:13.996Z,97982.97
2019-02-07T21:30:46.168Z,97984.05
2019-02-07T21:33:18.258Z,97983.06
2019-02-07T21:35:50.421Z,97991.44
2019-02-07T21:38:22.635Z,97991.13
2019-02-07T21:40:55.112Z,97997.44
2019-02-07T21:43:27.323Z,98002.84
2019-02-07T21:45:59.415Z,97994.31
2019-02-07T21:48:31.518Z,98001.16
2019-02-07T21:51:03.579Z,98004.27
2019-02-07T21:53:35.674Z,98007.18
2019-02-07T21:56:07.830Z,98006.69
2019-02-07T21:58:39.923Z,98010.64
2019-02-07T22:01:11.983Z,97999.26
2019-02-07T22:03:44.089Z,98012.55
2019-02-07T22:06:16.144Z,98010.16
2019-02-07T22:08:48.255Z,98015.53
2019-02-07T22:11:20.304Z,98016.33
2019-02-07T22:13:52.319Z,98016.18
2019-02-07T22:16:24.482Z,98018.59
2019-02-07T22:18:56.575Z,98015.16
2019-02-07T22:21:28.631Z,98020.75
2019-02-07T22:24:00.729Z,98024.36
2019-02-07T22:26:32.788Z,98023.72
2019-02-07T22:29:05.004Z,98028.85
2019-02-07T22:31:37.241Z,98037.51
2019-02-07T22:34:09.298Z,98030.90
2019-02-07T22:36:41.369Z,98029.33
2019-02-07T22:39:13.923Z,98031.06
2019-02-07T22:41:45.974Z,98037.86
2019-02-07T22:44:18.502Z,98043.89
2019-02-07T22:46:50.565Z,98046.23
2019-02-07T22:49:22.667Z,98047.03
2019-02-07T22:51:54.733Z,98047.01
2019-02-07T22:54:26.828Z,98049.36
2019-02-07T22:56:59.179Z,98048.08
2019-02-07T22:59:31.290Z,98057.21
2019-02-07T23:02:04.856Z,98052.51
2019-02-07T23:04:36.892Z,98054.77
2019-02-07T23:07:09.156Z,98068.56
2019-02-07T23:09:41.348Z,98068.09
2019-02-07T23:12:13.405Z,98067.28
2019-02-07T23:14:45.500Z,98069.55
2019-02-07T23:17:17.659Z,98073.19
2019-02-07T23:19:49.762Z,98074.38
2019-02-07T23:22:21.928Z,98074.42
2019-02-07T23:24:54.028Z,98072.40
2019-02-07T23:27:26.095Z,98069.81
2019-02-07T23:29:58.188Z,98073.27
2019-02-07T23:32:30.346Z,98071.68
2019-02-07T23:35:02.444Z,98071.03
2019-02-07T23:37:34.531Z,98074.63
2019-02-07T23:40:08.564Z,98073.36
2019-02-07T23:42:40.764Z,98070.80
2019-02-07T23:45:13.466Z,98072.37
2019-02-07T23:47:45.532Z,98073.09
2019-02-07T23:50:18.540Z,98079.80
2019-02-07T23:52:50.605Z,98077.35
2019-02-07T23:55:22.816Z,98079.53
2019-02-07T23:57:54.969Z,98079.48
